sensor_id;sensor_type;location;lat;lon;timestamp;pressure;altitude;pressure_sealevel;temperature
76347;BMP280;73309;48.818;9.806;2024-01-07T00:00:46;95661.38;;;7.53
76347;BMP280;73309;48.818;9.806;2024-01-07T00:03:11;95662.66;;;7.52
76347;BMP280;73309;48.818;9.806;2024-01-07T00:05:37;95656.22;;;7.46
76347;BMP280;73309;48.818;9.806;2024-01-07T00:08:02;95666.00;;;7.56
76347;BMP280;73309;48.818;9.806;2024-01-07T00:10:29;95671.34;;;7.54
76347;BMP280;73309;48.818;9.806;2024-01-07T00:12:55;95669.31;;;7.55
76347;BMP280;73309;48.818;9.806;2024-01-07T00:15:20;95670.84;;;7.56
76347;BMP280;73309;48.818;9.806;2024-01-07T00:17:45;95678.50;;;7.55
76347;BMP280;73309;48.818;9.806;2024-01-07T00:20:11;95666.97;;;7.48
76347;BMP280;73309;48.818;9.806;2024-01-07T00:22:36;95677.22;;;7.56
76347;BMP280;73309;48.818;9.806;2024-01-07T00:25:02;95674.16;;;7.54
76347;BMP280;73309;48.818;9.806;2024-01-07T00:27:29;95668.81;;;7.56
76347;BMP280;73309;48.818;9.806;2024-01-07T00:29:54;95672.59;;;7.53
76347;BMP280;73309;48.818;9.806;2024-01-07T00:32:20;95672.41;;;7.57
76347;BMP280;73309;48.818;9.806;2024-01-07T00:34:45;95674.44;;;7.56
76347;BMP280;73309;48.818;9.806;2024-01-07T00:37:11;95671.63;;;7.56
76347;BMP280;73309;48.818;9.806;2024-01-07T00:39:36;95672.13;;;7.55
76347;BMP280;73309;48.818;9.806;2024-01-07T00:42:01;95679.25;;;7.56
76347;BMP280;73309;48.818;9.806;2024-01-07T00:44:28;95665.47;;;7.52
76347;BMP280;73309;48.818;9.806;2024-01-07T00:46:53;95670.09;;;7.55
76347;BMP280;73309;48.818;9.806;2024-01-07T00:49:19;95673.66;;;7.56
76347;BMP280;73309;48.818;9.806;2024-01-07T00:51:44;95668.00;;;7.50
76347;BMP280;73309;48.818;9.806;2024-01-07T00:54:10;95678.22;;;7.53
76347;BMP280;73309;48.818;9.806;2024-01-07T00:56:35;95683.81;;;7.53
76347;BMP280;73309;48.818;9.806;2024-01-07T00:59:00;95676.69;;;7.52
76347;BMP280;73309;48.818;9.806;2024-01-07T01:01:27;95674.88;;;7.49
76347;BMP280;73309;48.818;9.806;2024-01-07T01:03:53;95676.97;;;7.54
76347;BMP280;73309;48.818;9.806;2024-01-07T01:06:18;95684.63;;;7.54
76347;BMP280;73309;48.818;9.806;2024-01-07T01:08:43;95690.22;;;7.54
76347;BMP280;73309;48.818;9.806;2024-01-07T01:11:09;95681.03;;;7.53
76347;BMP280;73309;48.818;9.806;2024-01-07T01:13:34;95680.53;;;7.55
76347;BMP280;73309;48.818;9.806;2024-01-07T01:16:00;95669.28;;;7.49
76347;BMP280;73309;48.818;9.806;2024-01-07T01:18:27;95684.63;;;7.54
76347;BMP280;73309;48.818;9.806;2024-01-07T01:20:52;95685.41;;;7.54
76347;BMP280;73309;48.818;9.806;2024-01-07T01:23:21;95683.31;;;7.49
76347;BMP280;73309;48.818;9.806;2024-01-07T01:25:59;95683.56;;;7.51
76347;BMP280;73309;48.818;9.806;2024-01-07T01:28:28;95691.50;;;7.53
76347;BMP280;73309;48.818;9.806;2024-01-07T01:31:03;95688.19;;;7.54
76347;BMP280;73309;48.818;9.806;2024-01-07T01:33:34;95687.66;;;7.50
76347;BMP280;73309;48.818;9.806;2024-01-07T01:36:11;95692.00;;;7.51
76347;BMP280;73309;48.818;9.806;2024-01-07T01:38:50;95696.34;;;7.52
76347;BMP280;73309;48.818;9.806;2024-01-07T01:41:16;95672.00;;;7.38
76347;BMP280;73309;48.818;9.806;2024-01-07T01:43:49;95694.53;;;7.49
76347;BMP280;73309;48.818;9.806;2024-01-07T01:46:35;95697.34;;;7.49
76347;BMP280;73309;48.818;9.806;2024-01-07T01:49:14;95698.09;;;7.50
76347;BMP280;73309;48.818;9.806;2024-01-07T01:51:56;95696.56;;;7.49
76347;BMP280;73309;48.818;9.806;2024-01-07T01:54:41;95691.97;;;7.46
76347;BMP280;73309;48.818;9.806;2024-01-07T01:57:24;95688.94;;;7.49
76347;BMP280;73309;48.818;9.806;2024-01-07T01:59:57;95696.28;;;7.47
76347;BMP280;73309;48.818;9.806;2024-01-07T02:02:23;95697.06;;;7.47
76347;BMP280;73309;48.818;9.806;2024-01-07T02:04:50;95696.28;;;7.47
76347;BMP280;73309;48.818;9.806;2024-01-07T02:07:18;95694.25;;;7.47
76347;BMP280;73309;48.818;9.806;2024-01-07T02:09:52;95696.28;;;7.47
76347;BMP280;73309;48.818;9.806;2024-01-07T02:12:28;95697.56;;;7.46
76347;BMP280;73309;48.818;9.806;2024-01-07T02:15:01;95694.75;;;7.46
76347;BMP280;73309;48.818;9.806;2024-01-07T02:17:38;95692.72;;;7.46
76347;BMP280;73309;48.818;9.806;2024-01-07T02:20:08;95696.28;;;7.47
76347;BMP280;73309;48.818;9.806;2024-01-07T02:22:37;95694.75;;;7.46
76347;BMP280;73309;48.818;9.806;2024-01-07T02:27:50;95699.59;;;7.45
76347;BMP280;73309;48.818;9.806;2024-01-07T02:30:24;95698.56;;;7.43
76347;BMP280;73309;48.818;9.806;2024-01-07T02:33:03;95698.56;;;7.43
76347;BMP280;73309;48.818;9.806;2024-01-07T02:35:31;95700.88;;;7.44
76347;BMP280;73309;48.818;9.806;2024-01-07T02:40:53;95692.69;;;7.41
76347;BMP280;73309;48.818;9.806;2024-01-07T02:43:34;95686.28;;;7.40
76347;BMP280;73309;48.818;9.806;2024-01-07T02:46:35;95691.63;;;7.38
76347;BMP280;73309;48.818;9.806;2024-01-07T02:49:17;95691.16;;;7.40
76347;BMP280;73309;48.818;9.806;2024-01-07T02:51:44;95692.13;;;7.37
76347;BMP280;73309;48.818;9.806;2024-01-07T02:54:16;95691.63;;;7.38
76347;BMP280;73309;48.818;9.806;2024-01-07T02:56:49;95694.44;;;7.38
76347;BMP280;73309;48.818;9.806;2024-01-07T02:59:28;95692.91;;;7.37
76347;BMP280;73309;48.818;9.806;2024-01-07T03:01:55;95699.50;;;7.34
76347;BMP280;73309;48.818;9.806;2024-01-07T03:04:27;95694.69;;;7.35
76347;BMP280;73309;48.818;9.806;2024-01-07T03:06:55;95691.34;;;7.36
76347;BMP280;73309;48.818;9.806;2024-01-07T03:09:32;95684.44;;;7.32
76347;BMP280;73309;48.818;9.806;2024-01-07T03:12:08;95697.47;;;7.35
76347;BMP280;73309;48.818;9.806;2024-01-07T03:14:33;95686.19;;;7.29
76347;BMP280;73309;48.818;9.806;2024-01-07T03:17:07;95694.38;;;7.33
76347;BMP280;73309;48.818;9.806;2024-01-07T03:19:43;95700.72;;;7.28
76347;BMP280;73309;48.818;9.806;2024-01-07T03:22:09;95702.28;;;7.29
76347;BMP280;73309;48.818;9.806;2024-01-07T03:24:34;95700.72;;;7.28
76347;BMP280;73309;48.818;9.806;2024-01-07T03:26:59;95704.28;;;7.28
76347;BMP280;73309;48.818;9.806;2024-01-07T03:29:26;95703.50;;;7.28
76347;BMP280;73309;48.818;9.806;2024-01-07T03:31:52;95710.41;;;7.27
76347;BMP280;73309;48.818;9.806;2024-01-07T03:34:17;95711.66;;;7.26
76347;BMP280;73309;48.818;9.806;2024-01-07T03:36:42;95710.41;;;7.27
76347;BMP280;73309;48.818;9.806;2024-01-07T03:39:08;95702.69;;;7.22
76347;BMP280;73309;48.818;9.806;2024-01-07T03:41:33;95706.06;;;7.26
76347;BMP280;73309;48.818;9.806;2024-01-07T03:43:59;95701.94;;;7.21
76347;BMP280;73309;48.818;9.806;2024-01-07T03:46:25;95700.41;;;7.20
76347;BMP280;73309;48.818;9.806;2024-01-07T03:48:51;95713.72;;;7.25
76347;BMP280;73309;48.818;9.806;2024-01-07T03:51:16;95712.16;;;7.24
76347;BMP280;73309;48.818;9.806;2024-01-07T03:53:41;95713.44;;;7.23
76347;BMP280;73309;48.818;9.806;2024-01-07T03:56:07;95715.47;;;7.23
76347;BMP280;73309;48.818;9.806;2024-01-07T03:58:32;95720.31;;;7.22
76347;BMP280;73309;48.818;9.806;2024-01-07T04:01:00;95703.16;;;7.15
76347;BMP280;73309;48.818;9.806;2024-01-07T04:03:27;95714.13;;;7.18
76347;BMP280;73309;48.818;9.806;2024-01-07T04:05:53;95720.03;;;7.20
76347;BMP280;73309;48.818;9.806;2024-01-07T04:08:18;95720.78;;;7.21
76347;BMP280;73309;48.818;9.806;2024-01-07T04:10:43;95715.19;;;7.21
76347;BMP280;73309;48.818;9.806;2024-01-07T04:13:09;95732.50;;;7.19
76347;BMP280;73309;48.818;9.806;2024-01-07T04:15:35;95720.03;;;7.20
76347;BMP280;73309;48.818;9.806;2024-01-07T04:18:01;95717.47;;;7.17
76347;BMP280;73309;48.818;9.806;2024-01-07T04:20:28;95709.25;;;7.13
76347;BMP280;73309;48.818;9.806;2024-01-07T04:22:53;95721.59;;;7.21
76347;BMP280;73309;48.818;9.806;2024-01-07T04:25:18;95721.03;;;7.17
76347;BMP280;73309;48.818;9.806;2024-01-07T04:27:44;95736.88;;;7.20
76347;BMP280;73309;48.818;9.806;2024-01-07T04:30:10;95736.59;;;7.18
76347;BMP280;73309;48.818;9.806;2024-01-07T04:32:35;95733.28;;;7.20
76347;BMP280;73309;48.818;9.806;2024-01-07T04:35:00;95738.13;;;7.19
76347;BMP280;73309;48.818;9.806;2024-01-07T04:37:27;95731.69;;;7.13
76347;BMP280;73309;48.818;9.806;2024-01-07T04:39:52;95742.19;;;7.18
76347;BMP280;73309;48.818;9.806;2024-01-07T04:42:18;95736.81;;;7.15
76347;BMP280;73309;48.818;9.806;2024-01-07T04:44:43;95743.72;;;7.19
76347;BMP280;73309;48.818;9.806;2024-01-07T04:47:23;95746.75;;;7.16
76347;BMP280;73309;48.818;9.806;2024-01-07T04:49:48;95743.47;;;7.17
76347;BMP280;73309;48.818;9.806;2024-01-07T04:52:14;95738.84;;;7.14
76347;BMP280;73309;48.818;9.806;2024-01-07T04:54:41;95749.56;;;7.16
76347;BMP280;73309;48.818;9.806;2024-01-07T04:57:06;95746.00;;;7.15
76347;BMP280;73309;48.818;9.806;2024-01-07T04:59:31;95748.03;;;7.15
76347;BMP280;73309;48.818;9.806;2024-01-07T05:01:57;95752.38;;;7.16
76347;BMP280;73309;48.818;9.806;2024-01-07T05:04:22;95723.13;;;6.97
76347;BMP280;73309;48.818;9.806;2024-01-07T05:06:47;95757.50;;;7.17
76347;BMP280;73309;48.818;9.806;2024-01-07T05:09:13;95762.84;;;7.15
76347;BMP280;73309;48.818;9.806;2024-01-07T05:11:40;95759.25;;;7.15
76347;BMP280;73309;48.818;9.806;2024-01-07T05:14:06;95747.97;;;7.09
76347;BMP280;73309;48.818;9.806;2024-01-07T05:16:31;95764.84;;;7.15
76347;BMP280;73309;48.818;9.806;2024-01-07T05:18:56;95772.53;;;7.14
76347;BMP280;73309;48.818;9.806;2024-01-07T05:21:22;95731.97;;;6.90
76347;BMP280;73309;48.818;9.806;2024-01-07T05:23:47;95702.16;;;6.67
76347;BMP280;73309;48.818;9.806;2024-01-07T05:26:12;95769.91;;;7.11
76347;BMP280;73309;48.818;9.806;2024-01-07T05:28:39;95779.09;;;7.11
76347;BMP280;73309;48.818;9.806;2024-01-07T05:31:05;95769.63;;;7.09
76347;BMP280;73309;48.818;9.806;2024-01-07T05:33:30;95776.28;;;7.11
76347;BMP280;73309;48.818;9.806;2024-01-07T05:35:55;95747.78;;;6.93
76347;BMP280;73309;48.818;9.806;2024-01-07T05:38:23;95784.72;;;7.11
76347;BMP280;73309;48.818;9.806;2024-01-07T05:40:49;95785.75;;;7.14
76347;BMP280;73309;48.818;9.806;2024-01-07T05:43:14;95789.06;;;7.12
76347;BMP280;73309;48.818;9.806;2024-01-07T05:45:41;95786.72;;;7.11
76347;BMP280;73309;48.818;9.806;2024-01-07T05:48:07;95795.94;;;7.11
76347;BMP280;73309;48.818;9.806;2024-01-07T05:50:32;95793.13;;;7.11
76347;BMP280;73309;48.818;9.806;2024-01-07T05:52:57;95798.72;;;7.11
76347;BMP280;73309;48.818;9.806;2024-01-07T05:55:23;95795.38;;;7.07
76347;BMP280;73309;48.818;9.806;2024-01-07T05:57:48;95794.63;;;7.07
76347;BMP280;73309;48.818;9.806;2024-01-07T06:00:14;95799.22;;;7.10
76347;BMP280;73309;48.818;9.806;2024-01-07T06:02:41;95799.22;;;7.10
76347;BMP280;73309;48.818;9.806;2024-01-07T06:05:07;95805.34;;;7.08
76347;BMP280;73309;48.818;9.806;2024-01-07T06:07:33;95801.53;;;7.11
76347;BMP280;73309;48.818;9.806;2024-01-07T06:09:59;95807.63;;;7.10
76347;BMP280;73309;48.818;9.806;2024-01-07T06:12:24;95798.16;;;7.07
76347;BMP280;73309;48.818;9.806;2024-01-07T06:14:49;95797.91;;;7.05
76347;BMP280;73309;48.818;9.806;2024-01-07T06:17:15;95797.13;;;7.05
76347;BMP280;73309;48.818;9.806;2024-01-07T06:19:42;95776.34;;;6.91
76347;BMP280;73309;48.818;9.806;2024-01-07T06:22:07;95810.97;;;7.08
76347;BMP280;73309;48.818;9.806;2024-01-07T06:24:35;95801.97;;;7.04
76347;BMP280;73309;48.818;9.806;2024-01-07T06:27:01;95809.13;;;7.05
76347;BMP280;73309;48.818;9.806;2024-01-07T06:29:26;95815.50;;;7.06
76347;BMP280;73309;48.818;9.806;2024-01-07T06:31:51;95818.31;;;7.06
76347;BMP280;73309;48.818;9.806;2024-01-07T06:34:17;95822.34;;;7.05
76347;BMP280;73309;48.818;9.806;2024-01-07T06:36:43;95815.69;;;7.02
76347;BMP280;73309;48.818;9.806;2024-01-07T06:39:09;95825.38;;;7.01
76347;BMP280;73309;48.818;9.806;2024-01-07T06:41:34;95820.28;;;7.00
76347;BMP280;73309;48.818;9.806;2024-01-07T06:44:00;95824.84;;;6.97
76347;BMP280;73309;48.818;9.806;2024-01-07T06:46:25;95801.31;;;6.69
76347;BMP280;73309;48.818;9.806;2024-01-07T06:48:51;95843.91;;;6.93
76347;BMP280;73309;48.818;9.806;2024-01-07T06:51:16;95843.91;;;6.93
76347;BMP280;73309;48.818;9.806;2024-01-07T06:53:43;95847.25;;;6.77
76347;BMP280;73309;48.818;9.806;2024-01-07T06:56:08;95848.25;;;6.74
76347;BMP280;73309;48.818;9.806;2024-01-07T06:58:33;95734.00;;;6.09
76347;BMP280;73309;48.818;9.806;2024-01-07T07:00:59;95849.09;;;6.80
76347;BMP280;73309;48.818;9.806;2024-01-07T07:03:24;95853.63;;;6.98
76347;BMP280;73309;48.818;9.806;2024-01-07T07:05:50;95854.97;;;7.02
76347;BMP280;73309;48.818;9.806;2024-01-07T07:08:15;95857.28;;;7.04
76347;BMP280;73309;48.818;9.806;2024-01-07T07:10:42;95863.69;;;7.04
76347;BMP280;73309;48.818;9.806;2024-01-07T07:13:08;95864.94;;;7.03
76347;BMP280;73309;48.818;9.806;2024-01-07T07:15:33;95864.38;;;6.99
76347;BMP280;73309;48.818;9.806;2024-01-07T07:17:58;95874.81;;;6.99
76347;BMP280;73309;48.818;9.806;2024-01-07T07:20:24;95874.53;;;6.97
76347;BMP280;73309;48.818;9.806;2024-01-07T07:22:49;95874.53;;;6.97
76347;BMP280;73309;48.818;9.806;2024-01-07T07:25:15;95886.25;;;6.95
76347;BMP280;73309;48.818;9.806;2024-01-07T07:27:41;95880.63;;;6.95
76347;BMP280;73309;48.818;9.806;2024-01-07T07:30:07;95887.50;;;6.94
76347;BMP280;73309;48.818;9.806;2024-01-07T07:32:33;95895.34;;;6.90
76347;BMP280;73309;48.818;9.806;2024-01-07T07:34:59;95893.31;;;6.91
76347;BMP280;73309;48.818;9.806;2024-01-07T07:37:24;95899.41;;;6.89
76347;BMP280;73309;48.818;9.806;2024-01-07T07:39:49;95909.88;;;6.89
76347;BMP280;73309;48.818;9.806;2024-01-07T07:42:15;95901.16;;;6.87
76347;BMP280;73309;48.818;9.806;2024-01-07T07:44:42;95902.69;;;6.88
76347;BMP280;73309;48.818;9.806;2024-01-07T07:47:08;95815.81;;;6.33
76347;BMP280;73309;48.818;9.806;2024-01-07T07:49:34;95895.28;;;6.85
76347;BMP280;73309;48.818;9.806;2024-01-07T07:51:59;95899.84;;;6.82
76347;BMP280;73309;48.818;9.806;2024-01-07T07:54:24;95900.63;;;6.83
76347;BMP280;73309;48.818;9.806;2024-01-07T07:56:50;95897.72;;;6.77
76347;BMP280;73309;48.818;9.806;2024-01-07T07:59:15;95914.22;;;6.90
76347;BMP280;73309;48.818;9.806;2024-01-07T08:01:42;95916.03;;;6.93
76347;BMP280;73309;48.818;9.806;2024-01-07T08:04:07;95879.56;;;6.73
76347;BMP280;73309;48.818;9.806;2024-01-07T08:06:33;95916.53;;;6.91
76347;BMP280;73309;48.818;9.806;2024-01-07T08:08:58;95894.91;;;6.77
76347;BMP280;73309;48.818;9.806;2024-01-07T08:11:25;95884.13;;;6.70
76347;BMP280;73309;48.818;9.806;2024-01-07T08:13:50;95918.28;;;6.89
76347;BMP280;73309;48.818;9.806;2024-01-07T08:16:16;95916.25;;;6.89
76347;BMP280;73309;48.818;9.806;2024-01-07T08:18:43;95925.22;;;6.93
76347;BMP280;73309;48.818;9.806;2024-01-07T08:21:08;95923.69;;;6.92
76347;BMP280;73309;48.818;9.806;2024-01-07T08:23:34;95918.19;;;6.83
76347;BMP280;73309;48.818;9.806;2024-01-07T08:25:59;95921.84;;;6.89
76347;BMP280;73309;48.818;9.806;2024-01-07T08:28:24;95927.75;;;6.91
76347;BMP280;73309;48.818;9.806;2024-01-07T08:30:50;95927.44;;;6.89
76347;BMP280;73309;48.818;9.806;2024-01-07T08:33:15;95934.31;;;6.88
76347;BMP280;73309;48.818;9.806;2024-01-07T08:35:42;95934.31;;;6.88
76347;BMP280;73309;48.818;9.806;2024-01-07T08:38:07;95939.66;;;6.86
76347;BMP280;73309;48.818;9.806;2024-01-07T08:40:33;95946.72;;;6.82
76347;BMP280;73309;48.818;9.806;2024-01-07T08:42:58;95947.97;;;6.81
76347;BMP280;73309;48.818;9.806;2024-01-07T08:45:23;95949.03;;;6.83
76347;BMP280;73309;48.818;9.806;2024-01-07T08:47:49;95938.72;;;6.75
76347;BMP280;73309;48.818;9.806;2024-01-07T08:50:14;95959.97;;;6.81
76347;BMP280;73309;48.818;9.806;2024-01-07T08:52:41;95964.53;;;6.79
76347;BMP280;73309;48.818;9.806;2024-01-07T08:55:07;95954.19;;;6.70
76347;BMP280;73309;48.818;9.806;2024-01-07T08:57:33;95971.88;;;6.76
76347;BMP280;73309;48.818;9.806;2024-01-07T08:59:58;95968.88;;;6.80
76347;BMP280;73309;48.818;9.806;2024-01-07T09:02:24;95974.94;;;6.78
76347;BMP280;73309;48.818;9.806;2024-01-07T09:04:49;95981.56;;;6.75
76347;BMP280;73309;48.818;9.806;2024-01-07T09:07:14;95972.09;;;6.73
76347;BMP280;73309;48.818;9.806;2024-01-07T09:09:41;95982.22;;;6.70
76347;BMP280;73309;48.818;9.806;2024-01-07T09:12:07;95980.00;;;6.74
76347;BMP280;73309;48.818;9.806;2024-01-07T09:14:32;95980.28;;;6.76
76347;BMP280;73309;48.818;9.806;2024-01-07T09:16:58;95986.16;;;6.78
76347;BMP280;73309;48.818;9.806;2024-01-07T09:19:23;95972.94;;;6.79
76347;BMP280;73309;48.818;9.806;2024-01-07T09:21:49;95975.25;;;6.80
76347;BMP280;73309;48.818;9.806;2024-01-07T09:24:14;95982.41;;;6.81
76347;BMP280;73309;48.818;9.806;2024-01-07T09:26:41;95982.41;;;6.81
76347;BMP280;73309;48.818;9.806;2024-01-07T09:29:06;95986.97;;;6.79
76347;BMP280;73309;48.818;9.806;2024-01-07T09:31:31;95958.94;;;6.64
76347;BMP280;73309;48.818;9.806;2024-01-07T09:33:57;95984.34;;;6.75
76347;BMP280;73309;48.818;9.806;2024-01-07T09:36:22;95994.38;;;6.82
76347;BMP280;73309;48.818;9.806;2024-01-07T09:38:48;95997.19;;;6.82
76347;BMP280;73309;48.818;9.806;2024-01-07T09:41:13;95991.28;;;6.80
76347;BMP280;73309;48.818;9.806;2024-01-07T09:43:40;96003.09;;;6.84
76347;BMP280;73309;48.818;9.806;2024-01-07T09:46:05;96008.69;;;6.84
76347;BMP280;73309;48.818;9.806;2024-01-07T09:48:31;96005.38;;;6.85
76347;BMP280;73309;48.818;9.806;2024-01-07T09:50:57;95929.44;;;6.34
76347;BMP280;73309;48.818;9.806;2024-01-07T09:53:25;95980.38;;;6.67
76347;BMP280;73309;48.818;9.806;2024-01-07T09:55:55;96014.38;;;6.89
76347;BMP280;73309;48.818;9.806;2024-01-07T09:58:22;96015.91;;;6.90
76347;BMP280;73309;48.818;9.806;2024-01-07T10:00:49;96012.34;;;6.90
76347;BMP280;73309;48.818;9.806;2024-01-07T10:03:14;96015.91;;;6.90
76347;BMP280;73309;48.818;9.806;2024-01-07T10:05:40;96011.09;;;6.91
76347;BMP280;73309;48.818;9.806;2024-01-07T10:08:06;96014.69;;;6.91
76347;BMP280;73309;48.818;9.806;2024-01-07T10:10:34;96021.31;;;6.94
76347;BMP280;73309;48.818;9.806;2024-01-07T10:13:00;96020.56;;;6.93
76347;BMP280;73309;48.818;9.806;2024-01-07T10:15:25;96016.69;;;6.91
76347;BMP280;73309;48.818;9.806;2024-01-07T10:17:55;96014.47;;;6.95
76347;BMP280;73309;48.818;9.806;2024-01-07T10:20:21;96019.56;;;6.96
76347;BMP280;73309;48.818;9.806;2024-01-07T10:22:49;95985.50;;;6.69
76347;BMP280;73309;48.818;9.806;2024-01-07T10:25:15;96017.56;;;6.97
76347;BMP280;73309;48.818;9.806;2024-01-07T10:27:40;95997.69;;;6.80
76347;BMP280;73309;48.818;9.806;2024-01-07T10:30:06;95992.06;;;6.80
76347;BMP280;73309;48.818;9.806;2024-01-07T10:32:35;96020.94;;;7.01
76347;BMP280;73309;48.818;9.806;2024-01-07T10:35:04;96024.22;;;6.99
76347;BMP280;73309;48.818;9.806;2024-01-07T10:37:30;96032.44;;;7.03
76347;BMP280;73309;48.818;9.806;2024-01-07T10:39:57;96031.66;;;7.02
76347;BMP280;73309;48.818;9.806;2024-01-07T10:42:23;96028.84;;;7.02
76347;BMP280;73309;48.818;9.806;2024-01-07T10:44:49;96033.38;;;6.65
76347;BMP280;73309;48.818;9.806;2024-01-07T10:47:16;96033.66;;;6.53
76347;BMP280;73309;48.818;9.806;2024-01-07T10:49:44;96023.78;;;5.99
76347;BMP280;73309;48.818;9.806;2024-01-07T10:52:12;96018.09;;;5.32
76347;BMP280;73309;48.818;9.806;2024-01-07T10:54:39;96034.88;;;5.00
76347;BMP280;73309;48.818;9.806;2024-01-07T10:57:10;96040.34;;;4.94
76347;BMP280;73309;48.818;9.806;2024-01-07T10:59:38;96044.84;;;5.01
76347;BMP280;73309;48.818;9.806;2024-01-07T11:02:04;95845.47;;;3.50
76347;BMP280;73309;48.818;9.806;2024-01-07T11:04:35;96046.25;;;4.96
76347;BMP280;73309;48.818;9.806;2024-01-07T11:07:09;96050.38;;;5.57
76347;BMP280;73309;48.818;9.806;2024-01-07T11:09:43;96042.81;;;5.95
76347;BMP280;73309;48.818;9.806;2024-01-07T11:12:11;96035.00;;;6.14
76347;BMP280;73309;48.818;9.806;2024-01-07T11:14:38;96033.00;;;6.29
76347;BMP280;73309;48.818;9.806;2024-01-07T11:17:03;95925.44;;;5.68
76347;BMP280;73309;48.818;9.806;2024-01-07T11:19:29;96027.59;;;6.40
76347;BMP280;73309;48.818;9.806;2024-01-07T11:22:24;96027.09;;;6.41
76347;BMP280;73309;48.818;9.806;2024-01-07T11:24:51;96030.19;;;6.43
76347;BMP280;73309;48.818;9.806;2024-01-07T11:27:17;96027.84;;;6.13
76347;BMP280;73309;48.818;9.806;2024-01-07T11:29:42;96040.06;;;5.63
76347;BMP280;73309;48.818;9.806;2024-01-07T11:32:07;96040.97;;;5.45
76347;BMP280;73309;48.818;9.806;2024-01-07T11:34:40;96045.88;;;5.36
76347;BMP280;73309;48.818;9.806;2024-01-07T11:37:07;96045.50;;;5.19
76347;BMP280;73309;48.818;9.806;2024-01-07T11:39:34;96022.72;;;5.35
76347;BMP280;73309;48.818;9.806;2024-01-07T11:42:02;96046.38;;;5.72
76347;BMP280;73309;48.818;9.806;2024-01-07T11:44:28;96044.59;;;5.84
76347;BMP280;73309;48.818;9.806;2024-01-07T11:46:53;96046.28;;;5.90
76347;BMP280;73309;48.818;9.806;2024-01-07T11:49:19;96045.41;;;5.99
76347;BMP280;73309;48.818;9.806;2024-01-07T11:51:44;96048.97;;;5.99
76347;BMP280;73309;48.818;9.806;2024-01-07T11:54:10;96055.16;;;6.03
76347;BMP280;73309;48.818;9.806;2024-01-07T11:56:35;96049.09;;;6.05
76347;BMP280;73309;48.818;9.806;2024-01-07T11:59:02;96038.38;;;6.03
76347;BMP280;73309;48.818;9.806;2024-01-07T12:01:28;96049.19;;;6.10
76347;BMP280;73309;48.818;9.806;2024-01-07T12:03:53;96049.78;;;6.14
76347;BMP280;73309;48.818;9.806;2024-01-07T12:06:18;96044.56;;;6.07
76347;BMP280;73309;48.818;9.806;2024-01-07T12:08:44;96054.50;;;6.08
76347;BMP280;73309;48.818;9.806;2024-01-07T12:11:11;96005.94;;;5.73
76347;BMP280;73309;48.818;9.806;2024-01-07T12:13:37;96060.69;;;6.12
76347;BMP280;73309;48.818;9.806;2024-01-07T12:16:05;96066.59;;;6.14
76347;BMP280;73309;48.818;9.806;2024-01-07T12:18:30;96063.19;;;6.10
76347;BMP280;73309;48.818;9.806;2024-01-07T12:20:56;96069.44;;;6.05
76347;BMP280;73309;48.818;9.806;2024-01-07T12:23:21;96065.44;;;6.06
76347;BMP280;73309;48.818;9.806;2024-01-07T12:25:47;96072.63;;;5.98
76347;BMP280;73309;48.818;9.806;2024-01-07T12:28:12;96065.69;;;5.94
76347;BMP280;73309;48.818;9.806;2024-01-07T12:30:37;96076.69;;;5.97
76347;BMP280;73309;48.818;9.806;2024-01-07T12:33:05;96046.38;;;5.72
76347;BMP280;73309;48.818;9.806;2024-01-07T12:35:31;96076.28;;;5.90
76347;BMP280;73309;48.818;9.806;2024-01-07T12:37:56;96051.50;;;5.74
76347;BMP280;73309;48.818;9.806;2024-01-07T12:40:21;96085.75;;;5.92
76347;BMP280;73309;48.818;9.806;2024-01-07T12:42:47;96077.66;;;5.94
76347;BMP280;73309;48.818;9.806;2024-01-07T12:45:13;96078.00;;;5.87
76347;BMP280;73309;48.818;9.806;2024-01-07T12:47:39;96081.13;;;5.89
76347;BMP280;73309;48.818;9.806;2024-01-07T12:50:06;96083.78;;;5.84
76347;BMP280;73309;48.818;9.806;2024-01-07T12:52:32;96081.97;;;5.81
76347;BMP280;73309;48.818;9.806;2024-01-07T12:54:57;96077.94;;;5.73
76347;BMP280;73309;48.818;9.806;2024-01-07T12:57:22;96089.56;;;5.80
76347;BMP280;73309;48.818;9.806;2024-01-07T12:59:48;96082.41;;;5.79
76347;BMP280;73309;48.818;9.806;2024-01-07T13:02:13;96093.72;;;5.85
76347;BMP280;73309;48.818;9.806;2024-01-07T13:04:39;96076.22;;;5.75
76347;BMP280;73309;48.818;9.806;2024-01-07T13:07:05;96088.19;;;5.76
76347;BMP280;73309;48.818;9.806;2024-01-07T13:09:31;96088.78;;;5.80
76347;BMP280;73309;48.818;9.806;2024-01-07T13:11:56;96098.59;;;5.75
76347;BMP280;73309;48.818;9.806;2024-01-07T13:14:22;96094.44;;;5.71
76347;BMP280;73309;48.818;9.806;2024-01-07T13:16:47;96092.41;;;5.71
76347;BMP280;73309;48.818;9.806;2024-01-07T13:19:13;96097.53;;;5.73
76347;BMP280;73309;48.818;9.806;2024-01-07T13:21:38;96115.56;;;5.72
76347;BMP280;73309;48.818;9.806;2024-01-07T13:24:06;96061.66;;;5.48
76347;BMP280;73309;48.818;9.806;2024-01-07T13:26:31;95908.75;;;4.27
76347;BMP280;73309;48.818;9.806;2024-01-07T13:28:57;95987.94;;;4.80
76347;BMP280;73309;48.818;9.806;2024-01-07T13:34:49;96111.69;;;5.69
76347;BMP280;73309;48.818;9.806;2024-01-07T13:37:14;96065.91;;;5.34
76347;BMP280;73309;48.818;9.806;2024-01-07T13:39:43;96076.31;;;5.34
76347;BMP280;73309;48.818;9.806;2024-01-07T13:42:08;96064.66;;;5.35
76347;BMP280;73309;48.818;9.806;2024-01-07T13:44:34;95967.56;;;4.56
76347;BMP280;73309;48.818;9.806;2024-01-07T13:46:59;96153.06;;;5.65
76347;BMP280;73309;48.818;9.806;2024-01-07T13:49:25;96128.84;;;5.62
76347;BMP280;73309;48.818;9.806;2024-01-07T13:51:50;96136.00;;;5.63
76347;BMP280;73309;48.818;9.806;2024-01-07T13:54:16;96114.63;;;5.51
76347;BMP280;73309;48.818;9.806;2024-01-07T13:56:42;96093.88;;;5.34
76347;BMP280;73309;48.818;9.806;2024-01-07T13:59:08;96140.16;;;5.68
76347;BMP280;73309;48.818;9.806;2024-01-07T14:01:33;96133.25;;;5.54
76347;BMP280;73309;48.818;9.806;2024-01-07T14:03:59;96151.72;;;5.61
76347;BMP280;73309;48.818;9.806;2024-01-07T14:06:24;96151.53;;;5.64
76347;BMP280;73309;48.818;9.806;2024-01-07T14:08:50;96155.59;;;5.63
76347;BMP280;73309;48.818;9.806;2024-01-07T14:11:15;96157.03;;;5.59
76347;BMP280;73309;48.818;9.806;2024-01-07T14:13:42;96156.22;;;5.58
76347;BMP280;73309;48.818;9.806;2024-01-07T14:16:07;96156.41;;;5.55
76347;BMP280;73309;48.818;9.806;2024-01-07T14:18:35;96139.38;;;5.44
76347;BMP280;73309;48.818;9.806;2024-01-07T14:21:00;96157.59;;;5.63
76347;BMP280;73309;48.818;9.806;2024-01-07T14:23:26;96133.66;;;5.38
76347;BMP280;73309;48.818;9.806;2024-01-07T14:25:51;96170.38;;;5.64
76347;BMP280;73309;48.818;9.806;2024-01-07T14:28:17;96162.91;;;5.61